Bloomfield, South Dakota
Current Conditions -  °F | °C
As of 4:55 PM on Thursday 20 Nov 2014 (Local Time) from KHON Reporting Station
Clear Clear  
Wind Chill:   Ceiling: Unl
Heat Index: 15°   Visibility: 10mi
Dew Point:   Wind: 7mph
Humidity: 74%   Direction: 120°ESE
Pressure: 30.15"   Gusts: NA
Location:  44.6749°N, 97.9169°W
Report Text: KHON 202255Z AUTO 12006KT 10SM CLR M09/M13 A3015 RMK AO2 SLP239 T10941133
Loading
Personal Weather Stations






























Interactive Weather Map New forecast layout! Learn more

10-Day Weather Forecast

Advertisements
Track Severe Weather on mobile